This is the latest recevied weather packets stored in our database for station/object W0WC. If no packets are shown the sender has not sent any weather packets the latest 10 day(s).
| Time | Temp. | Humidity | Pressure | Rain* | Wind** | Luminosity | Snow |
|---|---|---|---|---|---|---|---|
| 1777321913 | 27.78° C | 64% | 1004.3 hPa | 0 mm | - | 194 W/m² | - |
| 1777321610 | 27.22° C | 64% | 1004.4 hPa | 0 mm | - | 763 W/m² | - |
| 1777321307 | 27.22° C | 64% | 1004.3 hPa | 0 mm | - | 141 W/m² | - |
| 1777321004 | 26.67° C | 65% | 1004.5 hPa | 0 mm | - | 690 W/m² | - |
| 1777320701 | 27.78° C | 57% | 1004.5 hPa | 0 mm | - | 76 W/m² | - |
| 1777320399 | 28.89° C | 58% | 1004.1 hPa | 0 mm | - | 66 W/m² | - |
| 1777320095 | 29.44° C | 55% | 1004.2 hPa | 0 mm | - | 149 W/m² | - |
| 1777319792 | 30° C | 53% | 1004.5 hPa | 0 mm | - | 355 W/m² | - |
| 1777319489 | 30.56° C | 52% | 1004.3 hPa | 0 mm | - | 636 W/m² | - |
| 1777319186 | 30° C | 54% | 1004.4 hPa | 0 mm | - | 783 W/m² | - |
| 1777318883 | 30° C | 54% | 1004.4 hPa | 0 mm | - | 872 W/m² | - |
| 1777318580 | 30° C | 53% | 1004.5 hPa | 0 mm | - | 548 W/m² | - |
| 1777318277 | 30° C | 55% | 1004.5 hPa | 0 mm | - | 763 W/m² | - |
| 1777317973 | 29.44° C | 57% | 1004.5 hPa | 0 mm | - | 809 W/m² | - |
| 1777317670 | 30° C | 56% | 1004.2 hPa | 0 mm | - | 169 W/m² | - |
| 1777317368 | 29.44° C | 56% | 1004.4 hPa | 0 mm | - | 789 W/m² | - |
| 1777317062 | 29.44° C | 54% | 1004.2 hPa | 0 mm | - | 809 W/m² | - |
| 1777316760 | 28.89° C | 60% | 1004.4 hPa | 0 mm | - | 817 W/m² | - |
| 1777316456 | 28.89° C | 57% | 1004.2 hPa | 0 mm | - | 246 W/m² | - |
| 1777316154 | 28.89° C | 59% | 1004.2 hPa | 0 mm | - | 226 W/m² | - |
| 1777315852 | 28.89° C | 60% | 1004.1 hPa | 0 mm | - | 819 W/m² | - |
| 1777315550 | 28.89° C | 61% | 1004.1 hPa | 0 mm | - | 231 W/m² | - |
| 1777315248 | 28.89° C | 60% | 1004 hPa | 0 mm | - | 875 W/m² | - |
| 1777314945 | 28.89° C | 62% | 1004.2 hPa | 0 mm | - | 242 W/m² | - |
| 1777314640 | 28.89° C | 62% | 1004 hPa | 0 mm | - | 854 W/m² | - |
* Rain latest hour (hover to see other rain measurements)
** Current wind speed in m/s (hover to see current wind gust speed)